Miltonvale, Kansas
Current Conditions -  °F | °C
As of 11:33 AM on Thursday 23 Oct 2014 (Local Time) from KCNK Reporting Station
Scattered Clouds Scattered Clouds  
Wind Chill: 67°   Ceiling: Unl
Heat Index: 67°   Visibility: 10mi
Dew Point: 60°   Wind: 5mph
Humidity: 79%   Direction: 240°WSW
Pressure: 30.1"   Gusts: NA
Location:  39.35°N, 97.45°W
Report Text: KCNK 231633Z AUTO 24004KT 10SM SCT018 19/16 A3010 RMK AO2 T01940156
Loading
Personal Weather Stations






























Interactive Weather Map
Tropical Storm Tracking
New forecast layout! Learn more

10-Day Weather Forecast

Advertisements
Track Severe Weather on mobile